createdAt,value
2022-10-13T04:02:31.762Z,22.37
2022-10-13T04:04:58.262Z,26.00
2022-10-13T04:07:26.066Z,23.80
2022-10-13T04:09:52.630Z,25.02
2022-10-13T04:12:21.149Z,24.67
2022-10-13T04:14:47.885Z,26.27
2022-10-13T04:17:14.440Z,24.42
2022-10-13T04:19:40.935Z,25.13
2022-10-13T04:22:07.540Z,25.85
2022-10-13T04:24:34.268Z,23.58
2022-10-13T04:27:02.340Z,22.43
2022-10-13T04:29:29.214Z,21.58
2022-10-13T04:31:55.765Z,24.33
2022-10-13T04:34:22.250Z,21.17
2022-10-13T04:36:52.638Z,21.92
2022-10-13T04:39:19.505Z,28.37
2022-10-13T04:41:45.996Z,23.48
2022-10-13T04:44:12.520Z,29.00
2022-10-13T04:46:39.074Z,26.25
2022-10-13T04:49:05.568Z,21.52
2022-10-13T04:51:32.160Z,23.77
2022-10-13T04:54:01.321Z,22.88
2022-10-13T04:56:28.368Z,26.40
2022-10-13T04:58:55.023Z,27.92
2022-10-13T05:01:23.922Z,22.10
2022-10-13T05:03:52.576Z,22.47
2022-10-13T05:06:22.618Z,23.75
2022-10-13T05:08:49.849Z,25.65
2022-10-13T05:11:17.412Z,24.25
2022-10-13T05:13:43.972Z,23.88
2022-10-13T05:16:13.158Z,23.53
2022-10-13T05:18:39.899Z,22.50
2022-10-13T05:21:18.110Z,25.23
2022-10-13T05:23:45.673Z,24.65
2022-10-13T05:26:14.571Z,27.38
2022-10-13T05:28:41.175Z,26.93
2022-10-13T05:31:15.928Z,22.70
2022-10-13T05:33:43.835Z,21.58
2022-10-13T05:36:19.027Z,25.20
2022-10-13T05:38:46.068Z,22.67
2022-10-13T05:41:13.887Z,23.27
2022-10-13T05:43:41.537Z,24.20
2022-10-13T05:46:09.150Z,26.58
2022-10-13T05:48:37.085Z,25.58
2022-10-13T05:51:08.135Z,25.95
2022-10-13T05:53:37.643Z,29.73
2022-10-13T05:56:09.873Z,29.90
2022-10-13T05:58:51.014Z,29.75
2022-10-13T06:01:22.684Z,29.77
2022-10-13T06:03:50.963Z,28.77
2022-10-13T06:06:17.556Z,30.03
2022-10-13T06:08:44.245Z,29.60
2022-10-13T06:11:10.884Z,30.15
2022-10-13T06:13:37.366Z,31.85
2022-10-13T06:16:04.129Z,29.88
2022-10-13T06:18:30.853Z,31.27
2022-10-13T06:20:57.446Z,29.00
2022-10-13T06:23:24.185Z,27.13
2022-10-13T06:25:52.688Z,31.00
2022-10-13T06:28:20.440Z,28.08
2022-10-13T06:30:56.742Z,30.83
2022-10-13T06:33:24.663Z,24.85
2022-10-13T06:35:52.481Z,26.92
2022-10-13T06:38:19.696Z,27.67
2022-10-13T06:40:46.277Z,31.95
2022-10-13T06:43:13.206Z,31.50
2022-10-13T06:45:40.347Z,31.27
2022-10-13T06:48:07.234Z,35.55
2022-10-13T06:50:33.878Z,36.22
2022-10-13T06:53:01.285Z,30.50
2022-10-13T06:55:27.996Z,32.00
2022-10-13T06:57:54.898Z,30.90
2022-10-13T07:00:21.649Z,31.83
2022-10-13T07:02:52.480Z,30.35
2022-10-13T07:05:19.465Z,28.92
2022-10-13T07:07:46.328Z,32.93
2022-10-13T07:10:13.270Z,34.97
2022-10-13T07:12:40.111Z,36.67
2022-10-13T07:15:07.157Z,32.80
2022-10-13T07:17:33.652Z,33.22
2022-10-13T07:20:04.962Z,30.83
2022-10-13T07:22:34.413Z,31.38
2022-10-13T07:25:00.961Z,31.95
2022-10-13T07:27:27.500Z,28.83
2022-10-13T07:29:54.586Z,27.85
2022-10-13T07:32:21.520Z,26.13
2022-10-13T07:34:48.063Z,25.35
2022-10-13T07:37:14.582Z,27.10
2022-10-13T07:39:41.088Z,26.10
2022-10-13T07:42:07.608Z,27.23
2022-10-13T07:44:34.167Z,25.40
2022-10-13T07:47:00.702Z,24.70
2022-10-13T07:49:27.267Z,21.92
2022-10-13T07:51:54.111Z,25.20
2022-10-13T07:54:23.795Z,27.85
2022-10-13T07:56:55.906Z,26.17
2022-10-13T07:59:23.095Z,25.75
2022-10-13T08:01:49.776Z,27.73
2022-10-13T08:04:16.826Z,27.50
2022-10-13T08:06:43.473Z,27.23
2022-10-13T08:09:10.234Z,27.63
2022-10-13T08:11:37.137Z,26.95
2022-10-13T08:14:03.941Z,25.40
2022-10-13T08:16:32.522Z,28.20
2022-10-13T08:18:59.379Z,22.00
2022-10-13T08:21:53.247Z,26.50
2022-10-13T08:24:17.611Z,23.48
2022-10-13T08:26:46.591Z,24.38
2022-10-13T08:29:22.371Z,23.02
2022-10-13T08:31:50.626Z,25.77
2022-10-13T08:34:17.909Z,31.07
2022-10-13T08:36:44.897Z,25.80
2022-10-13T08:39:11.684Z,26.33
2022-10-13T08:41:41.027Z,28.90
2022-10-13T08:47:15.982Z,27.40
2022-10-13T08:49:43.759Z,23.55
2022-10-13T08:52:19.322Z,25.58
2022-10-13T08:54:46.738Z,27.02
2022-10-13T08:57:14.002Z,27.48
2022-10-13T08:59:40.756Z,23.77
2022-10-13T09:02:33.452Z,23.60
2022-10-13T09:05:03.602Z,24.85
2022-10-13T09:07:35.314Z,30.83
2022-10-13T09:10:01.849Z,25.25
2022-10-13T09:12:28.424Z,26.83
2022-10-13T09:15:05.295Z,23.92
2022-10-13T09:17:33.221Z,27.10
2022-10-13T09:20:06.297Z,26.20
2022-10-13T09:22:38.714Z,26.48
2022-10-13T09:25:19.165Z,28.90
2022-10-13T09:27:48.651Z,25.63
2022-10-13T09:30:35.546Z,27.27
2022-10-13T09:33:04.828Z,29.55
2022-10-13T09:35:34.364Z,26.30
2022-10-13T09:38:16.376Z,28.07
2022-10-13T09:40:55.612Z,24.65
2022-10-13T09:43:35.578Z,24.77
2022-10-13T09:46:11.580Z,26.00
2022-10-13T09:48:39.707Z,30.90
2022-10-13T09:51:06.238Z,24.87
2022-10-13T09:53:39.998Z,26.70
2022-10-13T09:56:33.650Z,24.75
2022-10-13T09:59:28.358Z,26.23
2022-10-13T10:01:57.322Z,25.67
2022-10-13T10:04:35.158Z,25.03
2022-10-13T10:07:11.569Z,24.73
2022-10-13T10:10:02.106Z,25.48
2022-10-13T10:12:31.971Z,23.73
2022-10-13T10:14:58.520Z,23.58
2022-10-13T10:17:47.161Z,25.77
2022-10-13T10:20:46.736Z,27.67
2022-10-13T10:23:46.059Z,27.60
2022-10-13T10:26:24.286Z,23.98
2022-10-13T10:29:15.165Z,26.83
2022-10-13T10:32:13.669Z,29.23
2022-10-13T10:35:12.114Z,23.08
2022-10-13T10:37:44.712Z,25.92
2022-10-13T10:40:12.896Z,24.42
2022-10-13T10:42:51.112Z,23.83
2022-10-13T10:45:26.052Z,24.27
2022-10-13T10:47:59.213Z,21.42
2022-10-13T10:50:26.612Z,24.15
2022-10-13T10:53:19.538Z,27.48
2022-10-13T10:56:13.298Z,22.98
2022-10-13T10:58:43.647Z,24.70
2022-10-13T11:01:19.285Z,23.38
2022-10-13T11:04:23.016Z,23.20
2022-10-13T11:06:49.737Z,24.15
2022-10-13T11:10:00.889Z,23.63
2022-10-13T11:13:08.418Z,22.77
2022-10-13T11:15:44.378Z,25.17
2022-10-13T11:18:57.013Z,25.80
2022-10-13T11:21:23.498Z,22.02
2022-10-13T11:23:50.326Z,23.67
2022-10-13T11:26:25.642Z,22.93
2022-10-13T11:28:52.203Z,22.45
2022-10-13T11:31:33.517Z,22.50
2022-10-13T11:34:03.040Z,25.20
2022-10-13T11:36:44.553Z,24.27
2022-10-13T11:42:34.631Z,30.55
2022-10-13T11:45:06.951Z,19.95
2022-10-13T11:47:36.279Z,23.48
2022-10-13T11:50:21.050Z,22.48
2022-10-13T11:53:26.160Z,20.10
2022-10-13T11:55:55.402Z,24.05
2022-10-13T11:58:33.291Z,24.33
2022-10-13T12:01:08.618Z,22.52
2022-10-13T12:03:38.158Z,24.23
2022-10-13T12:06:22.363Z,23.43
2022-10-13T12:08:51.395Z,21.10
2022-10-13T12:11:38.656Z,21.25
2022-10-13T12:14:20.321Z,22.52
2022-10-13T12:16:59.800Z,19.83
2022-10-13T12:19:29.615Z,22.63
2022-10-13T12:21:59.109Z,18.10
2022-10-13T12:24:29.118Z,21.73
2022-10-13T12:26:57.338Z,21.60
2022-10-13T12:29:32.113Z,19.40
2022-10-13T12:32:00.112Z,20.50
2022-10-13T12:34:33.548Z,23.52
2022-10-13T12:37:05.795Z,19.48
2022-10-13T12:39:34.747Z,20.33
2022-10-13T12:42:02.951Z,20.75
2022-10-13T12:44:32.031Z,22.27
2022-10-13T12:47:01.989Z,22.73
2022-10-13T12:49:30.855Z,22.45
2022-10-13T12:52:10.841Z,23.48
2022-10-13T12:54:48.731Z,23.40
2022-10-13T12:57:17.970Z,20.43
2022-10-13T12:59:45.006Z,21.17
2022-10-13T13:02:25.837Z,19.77
2022-10-13T13:04:52.374Z,23.38
2022-10-13T13:07:35.130Z,21.45
2022-10-13T13:10:09.348Z,23.20
2022-10-13T13:12:37.338Z,20.37
2022-10-13T13:15:37.620Z,22.38
2022-10-13T13:18:29.163Z,22.60
2022-10-13T13:20:56.534Z,22.38
2022-10-13T13:23:23.708Z,21.55
2022-10-13T13:26:02.305Z,25.37
2022-10-13T13:28:31.424Z,25.02
2022-10-13T13:30:58.799Z,23.30
2022-10-13T13:33:25.567Z,25.23
2022-10-13T13:35:53.216Z,24.83
2022-10-13T13:38:19.713Z,24.57
2022-10-13T13:40:46.252Z,25.75
2022-10-13T13:43:12.818Z,27.25
2022-10-13T13:45:39.531Z,27.98
2022-10-13T13:48:06.180Z,25.60
2022-10-13T13:50:36.539Z,24.83
2022-10-13T13:53:04.328Z,22.73
2022-10-13T13:55:31.183Z,25.92
2022-10-13T13:57:58.246Z,24.38
2022-10-13T14:00:25.357Z,24.75
2022-10-13T14:02:51.948Z,22.73
2022-10-13T14:05:18.603Z,21.40
2022-10-13T14:07:45.099Z,22.30
2022-10-13T14:10:12.048Z,25.73
2022-10-13T14:12:38.592Z,23.65
2022-10-13T14:15:06.186Z,24.43
2022-10-13T14:17:32.814Z,28.70
2022-10-13T14:19:59.367Z,27.83
2022-10-13T14:22:26.381Z,27.65
2022-10-13T14:24:53.257Z,26.67
2022-10-13T14:27:19.799Z,27.13
2022-10-13T14:29:47.109Z,26.83
2022-10-13T14:32:13.640Z,26.17
2022-10-13T14:34:40.196Z,26.40
2022-10-13T14:37:15.165Z,22.00
2022-10-13T14:39:41.661Z,28.50
2022-10-13T14:42:08.163Z,30.83
2022-10-13T14:44:34.698Z,32.10
2022-10-13T14:47:01.279Z,32.03
2022-10-13T14:49:27.780Z,28.58
2022-10-13T14:51:54.378Z,27.60
2022-10-13T14:54:20.861Z,25.97
2022-10-13T14:56:47.402Z,32.53
2022-10-13T14:59:14.015Z,29.23
2022-10-13T15:01:43.753Z,24.65
2022-10-13T15:04:10.250Z,27.13
2022-10-13T15:06:39.264Z,25.97
2022-10-13T15:09:06.532Z,27.55
2022-10-13T15:11:33.271Z,26.35
2022-10-13T15:13:59.755Z,25.00
2022-10-13T15:16:29.100Z,25.08
2022-10-13T15:18:56.585Z,24.00
2022-10-13T15:21:23.511Z,26.23
2022-10-13T15:23:50.348Z,26.27
2022-10-13T15:26:19.057Z,24.80
2022-10-13T15:28:48.333Z,23.02
2022-10-13T15:31:16.536Z,23.50
2022-10-13T15:33:45.870Z,22.85
2022-10-13T15:36:12.805Z,26.95
2022-10-13T15:38:39.419Z,23.58
2022-10-13T15:41:06.899Z,24.38
2022-10-13T15:43:35.094Z,25.03
2022-10-13T15:46:08.318Z,20.65
2022-10-13T15:48:35.435Z,22.05
2022-10-13T15:51:02.984Z,21.95
2022-10-13T15:53:30.035Z,20.83
2022-10-13T15:55:56.570Z,20.57
2022-10-13T15:58:23.119Z,21.25
2022-10-13T16:00:50.068Z,22.15
2022-10-13T16:03:18.237Z,21.23
2022-10-13T16:05:46.143Z,20.10
2022-10-13T16:08:13.914Z,19.93
2022-10-13T16:10:43.062Z,20.50
2022-10-13T16:13:13.371Z,17.13
2022-10-13T16:15:39.994Z,17.98
2022-10-13T16:18:06.649Z,17.42
2022-10-13T16:20:35.327Z,17.27
2022-10-13T16:23:02.100Z,18.08
2022-10-13T16:25:29.522Z,15.57
2022-10-13T16:27:56.298Z,16.15
2022-10-13T16:30:22.850Z,15.70
2022-10-13T16:32:49.466Z,15.40
2022-10-13T16:35:16.101Z,19.33
2022-10-13T16:37:42.669Z,17.13
2022-10-13T16:40:09.687Z,21.15
2022-10-13T16:42:36.228Z,16.58
2022-10-13T16:45:02.837Z,16.40
2022-10-13T16:47:29.715Z,16.25
2022-10-13T16:49:56.236Z,17.23
2022-10-13T16:52:22.755Z,18.35
2022-10-13T16:54:49.275Z,16.63
2022-10-13T16:57:15.817Z,19.90
2022-10-13T16:59:42.352Z,17.98
2022-10-13T17:02:14.539Z,20.45
2022-10-13T17:04:42.198Z,19.88
2022-10-13T17:07:08.757Z,18.38
2022-10-13T17:09:35.555Z,21.13
2022-10-13T17:12:03.794Z,21.70
2022-10-13T17:14:30.861Z,20.63
2022-10-13T17:16:58.141Z,25.13
2022-10-13T17:19:25.277Z,22.83
2022-10-13T17:21:51.818Z,24.30
2022-10-13T17:24:18.878Z,23.67
2022-10-13T17:26:45.446Z,24.52
2022-10-13T17:29:12.046Z,25.77
2022-10-13T17:31:38.671Z,29.35
2022-10-13T17:34:06.233Z,26.67
2022-10-13T17:36:34.196Z,26.83
2022-10-13T17:39:07.297Z,27.95
2022-10-13T17:41:34.177Z,24.90
2022-10-13T17:44:00.894Z,27.83
2022-10-13T17:46:38.982Z,25.47
2022-10-13T17:49:09.219Z,26.13
2022-10-13T17:51:35.800Z,25.98
2022-10-13T17:54:02.536Z,24.75
2022-10-13T17:56:29.784Z,24.00
2022-10-13T17:58:56.958Z,24.67
2022-10-13T18:01:26.486Z,27.20
2022-10-13T18:03:55.884Z,33.03
2022-10-13T18:06:23.329Z,29.42
2022-10-13T18:08:50.769Z,31.08
2022-10-13T18:11:19.466Z,35.37
2022-10-13T18:13:46.850Z,35.88
2022-10-13T18:16:23.699Z,36.58
2022-10-13T18:18:51.705Z,35.95
2022-10-13T18:21:22.568Z,34.53
2022-10-13T18:23:49.418Z,36.40
2022-10-13T18:26:19.048Z,36.08
2022-10-13T18:28:47.746Z,37.13
2022-10-13T18:31:29.072Z,36.70
2022-10-13T18:33:57.530Z,40.20
2022-10-13T18:36:26.990Z,38.27
2022-10-13T18:38:55.501Z,39.40
2022-10-13T18:41:24.269Z,38.03
2022-10-13T18:43:51.794Z,34.13
2022-10-13T18:46:19.325Z,34.13
2022-10-13T18:48:46.226Z,37.17
2022-10-13T18:51:15.441Z,32.60
2022-10-13T18:53:44.265Z,34.13
2022-10-13T18:56:17.217Z,37.47
2022-10-13T18:58:44.064Z,36.35
2022-10-13T19:01:14.788Z,35.27
2022-10-13T19:03:43.245Z,34.03
2022-10-13T19:06:13.455Z,33.92
2022-10-13T19:08:46.596Z,32.85
2022-10-13T19:11:18.665Z,30.52
2022-10-13T19:13:45.605Z,29.77
2022-10-13T19:16:16.941Z,31.92
2022-10-13T19:18:45.102Z,31.70
2022-10-13T19:21:12.040Z,30.77
2022-10-13T19:23:39.441Z,31.52
2022-10-13T19:26:14.994Z,47.83
2022-10-13T19:28:43.818Z,41.55
2022-10-13T19:31:13.697Z,31.73
2022-10-13T19:33:44.808Z,31.83
2022-10-13T19:36:32.388Z,30.23
2022-10-13T19:38:59.563Z,31.77
2022-10-13T19:41:28.892Z,31.92
2022-10-13T19:43:56.450Z,32.70
2022-10-13T19:46:23.049Z,35.85
2022-10-13T19:48:50.623Z,33.28
2022-10-13T19:51:17.319Z,33.13
2022-10-13T19:53:44.793Z,33.42
2022-10-13T19:56:26.852Z,40.80
2022-10-13T19:58:54.237Z,41.97
2022-10-13T20:01:22.102Z,42.35
2022-10-13T20:03:49.489Z,43.67
2022-10-13T20:06:18.091Z,47.00
2022-10-13T20:08:47.405Z,48.60
2022-10-13T20:11:22.214Z,52.45
2022-10-13T20:13:50.624Z,52.50
2022-10-13T20:16:20.554Z,52.77
2022-10-13T20:18:58.466Z,54.15
2022-10-13T20:21:26.673Z,54.25
2022-10-13T20:23:54.255Z,56.55
2022-10-13T20:26:21.102Z,53.97
2022-10-13T20:28:49.076Z,56.60
2022-10-13T20:31:17.781Z,60.13
2022-10-13T20:33:44.544Z,58.30
2022-10-13T20:36:14.972Z,57.42
2022-10-13T20:38:41.804Z,57.55
2022-10-13T20:41:17.644Z,58.70
2022-10-13T20:43:44.937Z,57.63
2022-10-13T20:46:14.722Z,61.25
2022-10-13T20:49:05.570Z,58.95
2022-10-13T20:51:29.098Z,59.30
2022-10-13T20:53:55.677Z,60.13
2022-10-13T20:56:25.485Z,60.58
2022-10-13T20:58:52.927Z,59.65
2022-10-13T21:01:21.724Z,56.75
2022-10-13T21:03:55.347Z,55.00
2022-10-13T21:06:23.225Z,52.47
2022-10-13T21:08:50.118Z,56.72
2022-10-13T21:11:18.847Z,57.35
2022-10-13T21:13:45.497Z,55.30
2022-10-13T21:16:18.502Z,55.80
2022-10-13T21:18:48.190Z,55.30
2022-10-13T21:21:16.927Z,52.90
2022-10-13T21:23:43.914Z,56.80
2022-10-13T21:26:11.067Z,53.78
2022-10-13T21:28:39.091Z,56.67
2022-10-13T21:31:11.133Z,54.20
2022-10-13T21:33:38.816Z,56.45
2022-10-13T21:36:07.334Z,53.50
2022-10-13T21:38:33.996Z,57.70
2022-10-13T21:41:04.034Z,56.50
2022-10-13T21:43:30.521Z,57.63
2022-10-13T21:45:57.057Z,62.05
2022-10-13T21:48:23.623Z,58.72
